sensor_id;sensor_type;location;lat;lon;timestamp;P1;durP1;ratioP1;P2;durP2;ratioP2
70727;SDS011;58314;47.722;17.652;2022-07-23T00:00:50;21.40;;;18.23;;
70727;SDS011;58314;47.722;17.652;2022-07-23T00:03:50;27.98;;;23.40;;
70727;SDS011;58314;47.722;17.652;2022-07-23T00:06:54;43.70;;;38.63;;
70727;SDS011;58314;47.722;17.652;2022-07-23T00:09:55;42.08;;;37.53;;
70727;SDS011;58314;47.722;17.652;2022-07-23T00:12:55;39.55;;;34.00;;
70727;SDS011;58314;47.722;17.652;2022-07-23T00:15:56;37.97;;;32.15;;
70727;SDS011;58314;47.722;17.652;2022-07-23T00:18:57;35.70;;;29.05;;
70727;SDS011;58314;47.722;17.652;2022-07-23T00:21:58;37.05;;;29.95;;
70727;SDS011;58314;47.722;17.652;2022-07-23T00:24:58;32.53;;;29.00;;
70727;SDS011;58314;47.722;17.652;2022-07-23T00:27:59;26.83;;;23.38;;
70727;SDS011;58314;47.722;17.652;2022-07-23T00:31:03;24.75;;;20.17;;
70727;SDS011;58314;47.722;17.652;2022-07-23T00:34:04;22.52;;;17.38;;
70727;SDS011;58314;47.722;17.652;2022-07-23T00:37:04;18.30;;;16.40;;
70727;SDS011;58314;47.722;17.652;2022-07-23T00:40:05;22.33;;;18.42;;
70727;SDS011;58314;47.722;17.652;2022-07-23T00:43:07;23.95;;;19.25;;
70727;SDS011;58314;47.722;17.652;2022-07-23T00:46:12;22.83;;;20.42;;
70727;SDS011;58314;47.722;17.652;2022-07-23T00:49:13;26.70;;;23.95;;
70727;SDS011;58314;47.722;17.652;2022-07-23T00:52:14;19.00;;;17.00;;
70727;SDS011;58314;47.722;17.652;2022-07-23T00:55:16;17.52;;;15.55;;
70727;SDS011;58314;47.722;17.652;2022-07-23T00:58:17;19.30;;;17.30;;
70727;SDS011;58314;47.722;17.652;2022-07-23T01:01:18;18.42;;;16.52;;
70727;SDS011;58314;47.722;17.652;2022-07-23T01:04:19;18.90;;;16.88;;
70727;SDS011;58314;47.722;17.652;2022-07-23T01:07:20;20.17;;;15.98;;
70727;SDS011;58314;47.722;17.652;2022-07-23T01:10:22;19.58;;;16.98;;
70727;SDS011;58314;47.722;17.652;2022-07-23T01:13:32;20.70;;;18.55;;
70727;SDS011;58314;47.722;17.652;2022-07-23T01:16:33;20.83;;;17.92;;
70727;SDS011;58314;47.722;17.652;2022-07-23T01:19:33;21.58;;;19.27;;
70727;SDS011;58314;47.722;17.652;2022-07-23T01:22:34;21.20;;;19.00;;
70727;SDS011;58314;47.722;17.652;2022-07-23T01:25:35;26.02;;;23.23;;
70727;SDS011;58314;47.722;17.652;2022-07-23T01:28:35;24.58;;;22.08;;
70727;SDS011;58314;47.722;17.652;2022-07-23T01:31:37;20.95;;;18.00;;
70727;SDS011;58314;47.722;17.652;2022-07-23T01:34:38;19.50;;;17.42;;
70727;SDS011;58314;47.722;17.652;2022-07-23T01:37:41;19.52;;;17.25;;
70727;SDS011;58314;47.722;17.652;2022-07-23T01:40:41;20.20;;;18.05;;
70727;SDS011;58314;47.722;17.652;2022-07-23T01:43:42;20.63;;;18.45;;
70727;SDS011;58314;47.722;17.652;2022-07-23T01:46:43;22.42;;;19.98;;
70727;SDS011;58314;47.722;17.652;2022-07-23T01:49:44;21.33;;;19.20;;
70727;SDS011;58314;47.722;17.652;2022-07-23T01:52:44;27.33;;;24.23;;
70727;SDS011;58314;47.722;17.652;2022-07-23T01:55:45;34.15;;;30.42;;
70727;SDS011;58314;47.722;17.652;2022-07-23T01:58:46;53.97;;;47.78;;
70727;SDS011;58314;47.722;17.652;2022-07-23T02:01:48;83.10;;;69.65;;
70727;SDS011;58314;47.722;17.652;2022-07-23T02:04:51;105.43;;;88.72;;
70727;SDS011;58314;47.722;17.652;2022-07-23T02:07:51;104.53;;;87.35;;
70727;SDS011;58314;47.722;17.652;2022-07-23T02:10:52;112.63;;;96.68;;
70727;SDS011;58314;47.722;17.652;2022-07-23T02:13:53;105.18;;;89.93;;
70727;SDS011;58314;47.722;17.652;2022-07-23T02:16:54;98.53;;;85.20;;
70727;SDS011;58314;47.722;17.652;2022-07-23T02:19:55;94.90;;;80.30;;
70727;SDS011;58314;47.722;17.652;2022-07-23T02:22:56;75.63;;;66.15;;
70727;SDS011;58314;47.722;17.652;2022-07-23T02:25:56;70.35;;;61.60;;
70727;SDS011;58314;47.722;17.652;2022-07-23T02:28:57;70.22;;;62.60;;
70727;SDS011;58314;47.722;17.652;2022-07-23T02:31:58;75.97;;;67.47;;
70727;SDS011;58314;47.722;17.652;2022-07-23T02:34:58;73.55;;;65.38;;
70727;SDS011;58314;47.722;17.652;2022-07-23T02:37:59;77.25;;;67.20;;
70727;SDS011;58314;47.722;17.652;2022-07-23T02:40:59;71.93;;;64.13;;
70727;SDS011;58314;47.722;17.652;2022-07-23T02:44:00;73.38;;;61.10;;
70727;SDS011;58314;47.722;17.652;2022-07-23T02:47:01;65.93;;;58.33;;
70727;SDS011;58314;47.722;17.652;2022-07-23T02:50:02;65.35;;;55.30;;
70727;SDS011;58314;47.722;17.652;2022-07-23T02:53:05;50.85;;;45.33;;
70727;SDS011;58314;47.722;17.652;2022-07-23T02:56:06;44.15;;;39.35;;
70727;SDS011;58314;47.722;17.652;2022-07-23T02:59:07;39.30;;;35.05;;
70727;SDS011;58314;47.722;17.652;2022-07-23T03:02:08;41.28;;;36.97;;
70727;SDS011;58314;47.722;17.652;2022-07-23T03:05:09;47.70;;;41.53;;
70727;SDS011;58314;47.722;17.652;2022-07-23T03:08:10;44.15;;;39.40;;
70727;SDS011;58314;47.722;17.652;2022-07-23T03:11:11;40.20;;;35.65;;
70727;SDS011;58314;47.722;17.652;2022-07-23T03:14:11;37.40;;;33.50;;
70727;SDS011;58314;47.722;17.652;2022-07-23T03:17:13;36.65;;;32.75;;
70727;SDS011;58314;47.722;17.652;2022-07-23T03:20:14;32.70;;;29.27;;
70727;SDS011;58314;47.722;17.652;2022-07-23T03:23:15;33.05;;;28.92;;
70727;SDS011;58314;47.722;17.652;2022-07-23T03:26:16;29.42;;;25.98;;
70727;SDS011;58314;47.722;17.652;2022-07-23T03:29:17;27.20;;;24.40;;
70727;SDS011;58314;47.722;17.652;2022-07-23T03:32:17;28.85;;;25.30;;
70727;SDS011;58314;47.722;17.652;2022-07-23T03:35:18;26.73;;;24.13;;
70727;SDS011;58314;47.722;17.652;2022-07-23T03:38:19;28.15;;;25.05;;
70727;SDS011;58314;47.722;17.652;2022-07-23T03:41:20;25.17;;;22.67;;
70727;SDS011;58314;47.722;17.652;2022-07-23T03:44:21;25.08;;;22.58;;
70727;SDS011;58314;47.722;17.652;2022-07-23T03:47:23;28.10;;;23.27;;
70727;SDS011;58314;47.722;17.652;2022-07-23T03:50:24;28.35;;;22.58;;
70727;SDS011;58314;47.722;17.652;2022-07-23T03:53:25;29.38;;;24.58;;
70727;SDS011;58314;47.722;17.652;2022-07-23T03:56:25;29.77;;;26.98;;
70727;SDS011;58314;47.722;17.652;2022-07-23T03:59:26;28.08;;;25.17;;
70727;SDS011;58314;47.722;17.652;2022-07-23T04:02:27;26.55;;;23.88;;
70727;SDS011;58314;47.722;17.652;2022-07-23T04:05:28;19.65;;;17.65;;
70727;SDS011;58314;47.722;17.652;2022-07-23T04:08:29;15.57;;;13.43;;
70727;SDS011;58314;47.722;17.652;2022-07-23T04:11:30;12.55;;;11.35;;
70727;SDS011;58314;47.722;17.652;2022-07-23T04:14:31;11.18;;;9.95;;
70727;SDS011;58314;47.722;17.652;2022-07-23T04:17:32;13.82;;;9.63;;
70727;SDS011;58314;47.722;17.652;2022-07-23T04:20:33;14.13;;;12.00;;
70727;SDS011;58314;47.722;17.652;2022-07-23T04:23:34;14.70;;;13.20;;
70727;SDS011;58314;47.722;17.652;2022-07-23T04:26:35;12.75;;;11.35;;
70727;SDS011;58314;47.722;17.652;2022-07-23T04:29:35;11.63;;;9.80;;
70727;SDS011;58314;47.722;17.652;2022-07-23T04:32:36;10.50;;;9.50;;
70727;SDS011;58314;47.722;17.652;2022-07-23T04:35:37;9.35;;;8.25;;
70727;SDS011;58314;47.722;17.652;2022-07-23T04:38:37;10.32;;;9.32;;
70727;SDS011;58314;47.722;17.652;2022-07-23T04:41:38;9.52;;;8.63;;
70727;SDS011;58314;47.722;17.652;2022-07-23T04:44:39;10.52;;;8.98;;
70727;SDS011;58314;47.722;17.652;2022-07-23T04:47:39;13.85;;;9.57;;
70727;SDS011;58314;47.722;17.652;2022-07-23T04:50:40;10.05;;;9.05;;
70727;SDS011;58314;47.722;17.652;2022-07-23T04:53:42;11.05;;;9.88;;
70727;SDS011;58314;47.722;17.652;2022-07-23T04:56:43;10.63;;;9.52;;
70727;SDS011;58314;47.722;17.652;2022-07-23T04:59:44;10.52;;;9.52;;
70727;SDS011;58314;47.722;17.652;2022-07-23T05:02:44;9.60;;;8.60;;
70727;SDS011;58314;47.722;17.652;2022-07-23T05:05:45;10.45;;;8.85;;
70727;SDS011;58314;47.722;17.652;2022-07-23T05:08:46;9.45;;;8.43;;
70727;SDS011;58314;47.722;17.652;2022-07-23T05:11:47;8.95;;;8.15;;
70727;SDS011;58314;47.722;17.652;2022-07-23T05:14:47;9.57;;;8.30;;
70727;SDS011;58314;47.722;17.652;2022-07-23T05:17:48;9.23;;;7.82;;
70727;SDS011;58314;47.722;17.652;2022-07-23T05:20:49;8.18;;;7.20;;
70727;SDS011;58314;47.722;17.652;2022-07-23T05:23:50;7.63;;;6.82;;
70727;SDS011;58314;47.722;17.652;2022-07-23T05:26:51;9.00;;;6.63;;
70727;SDS011;58314;47.722;17.652;2022-07-23T05:29:51;8.32;;;6.60;;
70727;SDS011;58314;47.722;17.652;2022-07-23T05:32:52;8.05;;;6.70;;
70727;SDS011;58314;47.722;17.652;2022-07-23T05:35:53;10.15;;;7.38;;
70727;SDS011;58314;47.722;17.652;2022-07-23T05:38:53;9.02;;;6.80;;
70727;SDS011;58314;47.722;17.652;2022-07-23T05:41:54;8.35;;;6.32;;
70727;SDS011;58314;47.722;17.652;2022-07-23T05:44:54;8.95;;;7.22;;
70727;SDS011;58314;47.722;17.652;2022-07-23T05:47:55;9.20;;;7.97;;
70727;SDS011;58314;47.722;17.652;2022-07-23T05:50:56;11.90;;;8.20;;
70727;SDS011;58314;47.722;17.652;2022-07-23T05:53:56;10.77;;;7.82;;
70727;SDS011;58314;47.722;17.652;2022-07-23T05:56:57;12.88;;;8.25;;
70727;SDS011;58314;47.722;17.652;2022-07-23T05:59:58;11.00;;;6.95;;
70727;SDS011;58314;47.722;17.652;2022-07-23T06:02:58;7.85;;;6.65;;
70727;SDS011;58314;47.722;17.652;2022-07-23T06:05:59;12.48;;;7.13;;
70727;SDS011;58314;47.722;17.652;2022-07-23T06:09:00;8.23;;;7.40;;
70727;SDS011;58314;47.722;17.652;2022-07-23T06:12:00;8.50;;;7.18;;
70727;SDS011;58314;47.722;17.652;2022-07-23T06:15:01;10.27;;;8.00;;
70727;SDS011;58314;47.722;17.652;2022-07-23T06:18:04;9.27;;;6.72;;
70727;SDS011;58314;47.722;17.652;2022-07-23T06:21:05;9.45;;;5.32;;
70727;SDS011;58314;47.722;17.652;2022-07-23T06:24:06;7.18;;;5.50;;
70727;SDS011;58314;47.722;17.652;2022-07-23T06:27:06;12.02;;;5.85;;
70727;SDS011;58314;47.722;17.652;2022-07-23T06:30:08;9.80;;;5.50;;
70727;SDS011;58314;47.722;17.652;2022-07-23T06:33:10;11.23;;;5.82;;
70727;SDS011;58314;47.722;17.652;2022-07-23T06:36:12;6.20;;;5.00;;
70727;SDS011;58314;47.722;17.652;2022-07-23T06:39:13;7.65;;;5.13;;
70727;SDS011;58314;47.722;17.652;2022-07-23T06:42:13;8.60;;;5.50;;
70727;SDS011;58314;47.722;17.652;2022-07-23T06:45:15;7.97;;;5.13;;
70727;SDS011;58314;47.722;17.652;2022-07-23T06:48:15;8.90;;;5.30;;
70727;SDS011;58314;47.722;17.652;2022-07-23T06:51:16;7.30;;;5.20;;
70727;SDS011;58314;47.722;17.652;2022-07-23T06:54:16;10.82;;;5.13;;
70727;SDS011;58314;47.722;17.652;2022-07-23T06:57:17;7.40;;;5.18;;
70727;SDS011;58314;47.722;17.652;2022-07-23T07:00:18;6.97;;;5.50;;
70727;SDS011;58314;47.722;17.652;2022-07-23T07:03:19;7.53;;;5.50;;
70727;SDS011;58314;47.722;17.652;2022-07-23T07:06:20;9.85;;;5.32;;
70727;SDS011;58314;47.722;17.652;2022-07-23T07:09:20;5.57;;;4.30;;
70727;SDS011;58314;47.722;17.652;2022-07-23T07:12:21;5.32;;;4.82;;
70727;SDS011;58314;47.722;17.652;2022-07-23T07:15:22;7.03;;;4.47;;
70727;SDS011;58314;47.722;17.652;2022-07-23T07:18:22;7.88;;;4.72;;
70727;SDS011;58314;47.722;17.652;2022-07-23T07:21:23;6.53;;;4.47;;
70727;SDS011;58314;47.722;17.652;2022-07-23T07:24:24;7.00;;;4.35;;
70727;SDS011;58314;47.722;17.652;2022-07-23T07:27:25;7.68;;;4.55;;
70727;SDS011;58314;47.722;17.652;2022-07-23T07:30:25;5.60;;;4.57;;
70727;SDS011;58314;47.722;17.652;2022-07-23T07:33:26;5.95;;;4.40;;
70727;SDS011;58314;47.722;17.652;2022-07-23T07:36:27;7.80;;;4.00;;
70727;SDS011;58314;47.722;17.652;2022-07-23T07:39:27;7.68;;;4.32;;
70727;SDS011;58314;47.722;17.652;2022-07-23T07:42:28;6.60;;;4.20;;
70727;SDS011;58314;47.722;17.652;2022-07-23T07:45:29;19.35;;;5.57;;
70727;SDS011;58314;47.722;17.652;2022-07-23T07:48:30;8.57;;;4.68;;
70727;SDS011;58314;47.722;17.652;2022-07-23T07:51:31;9.70;;;4.45;;
70727;SDS011;58314;47.722;17.652;2022-07-23T07:54:32;6.68;;;4.90;;
70727;SDS011;58314;47.722;17.652;2022-07-23T07:57:33;6.53;;;4.35;;
70727;SDS011;58314;47.722;17.652;2022-07-23T08:00:35;5.80;;;4.50;;
70727;SDS011;58314;47.722;17.652;2022-07-23T08:03:35;7.68;;;4.75;;
70727;SDS011;58314;47.722;17.652;2022-07-23T08:06:36;5.25;;;4.28;;
70727;SDS011;58314;47.722;17.652;2022-07-23T08:09:36;9.07;;;5.20;;
70727;SDS011;58314;47.722;17.652;2022-07-23T08:12:47;7.95;;;4.72;;
70727;SDS011;58314;47.722;17.652;2022-07-23T08:15:49;5.38;;;4.32;;
70727;SDS011;58314;47.722;17.652;2022-07-23T08:18:50;7.75;;;4.93;;
70727;SDS011;58314;47.722;17.652;2022-07-23T08:21:51;14.07;;;5.85;;
70727;SDS011;58314;47.722;17.652;2022-07-23T08:24:51;7.50;;;5.20;;
70727;SDS011;58314;47.722;17.652;2022-07-23T08:27:52;10.85;;;9.35;;
70727;SDS011;58314;47.722;17.652;2022-07-23T08:30:56;10.38;;;5.07;;
70727;SDS011;58314;47.722;17.652;2022-07-23T08:33:57;5.35;;;4.85;;
70727;SDS011;58314;47.722;17.652;2022-07-23T08:36:58;10.43;;;5.25;;
70727;SDS011;58314;47.722;17.652;2022-07-23T08:39:58;6.70;;;5.20;;
70727;SDS011;58314;47.722;17.652;2022-07-23T08:42:59;6.10;;;4.60;;
70727;SDS011;58314;47.722;17.652;2022-07-23T08:46:04;7.07;;;4.93;;
70727;SDS011;58314;47.722;17.652;2022-07-23T08:49:05;5.22;;;4.75;;
70727;SDS011;58314;47.722;17.652;2022-07-23T08:52:06;5.38;;;4.88;;
70727;SDS011;58314;47.722;17.652;2022-07-23T08:55:08;7.03;;;5.30;;
70727;SDS011;58314;47.722;17.652;2022-07-23T08:58:09;7.35;;;5.97;;
70727;SDS011;58314;47.722;17.652;2022-07-23T09:01:09;8.50;;;5.85;;
70727;SDS011;58314;47.722;17.652;2022-07-23T09:04:10;7.95;;;6.22;;
70727;SDS011;58314;47.722;17.652;2022-07-23T09:07:11;6.28;;;5.68;;
70727;SDS011;58314;47.722;17.652;2022-07-23T09:10:12;6.60;;;5.45;;
70727;SDS011;58314;47.722;17.652;2022-07-23T09:13:29;10.18;;;5.88;;
70727;SDS011;58314;47.722;17.652;2022-07-23T09:16:33;9.30;;;6.13;;
70727;SDS011;58314;47.722;17.652;2022-07-23T09:19:34;8.98;;;6.50;;
70727;SDS011;58314;47.722;17.652;2022-07-23T09:22:35;10.32;;;6.93;;
70727;SDS011;58314;47.722;17.652;2022-07-23T09:25:35;8.48;;;7.72;;
70727;SDS011;58314;47.722;17.652;2022-07-23T09:28:46;9.98;;;6.45;;
70727;SDS011;58314;47.722;17.652;2022-07-23T09:34:53;40.97;;;10.02;;
70727;SDS011;58314;47.722;17.652;2022-07-23T09:38:00;15.55;;;7.00;;
70727;SDS011;58314;47.722;17.652;2022-07-23T09:41:05;38.28;;;10.00;;
70727;SDS011;58314;47.722;17.652;2022-07-23T09:44:08;14.07;;;6.80;;
70727;SDS011;58314;47.722;17.652;2022-07-23T09:47:14;8.95;;;7.25;;
70727;SDS011;58314;47.722;17.652;2022-07-23T09:50:15;7.72;;;6.10;;
70727;SDS011;58314;47.722;17.652;2022-07-23T09:56:24;7.22;;;6.47;;
70727;SDS011;58314;47.722;17.652;2022-07-23T09:59:28;6.53;;;5.95;;
70727;SDS011;58314;47.722;17.652;2022-07-23T10:02:31;6.93;;;6.25;;
70727;SDS011;58314;47.722;17.652;2022-07-23T10:05:33;8.40;;;6.03;;
70727;SDS011;58314;47.722;17.652;2022-07-23T10:08:36;8.18;;;6.28;;
70727;SDS011;58314;47.722;17.652;2022-07-23T10:11:44;6.82;;;5.88;;
70727;SDS011;58314;47.722;17.652;2022-07-23T10:14:45;6.82;;;6.10;;
70727;SDS011;58314;47.722;17.652;2022-07-23T10:17:47;13.02;;;6.45;;
70727;SDS011;58314;47.722;17.652;2022-07-23T10:20:49;6.32;;;5.68;;
70727;SDS011;58314;47.722;17.652;2022-07-23T10:34:17;7.07;;;6.15;;
70727;SDS011;58314;47.722;17.652;2022-07-23T10:40:32;6.15;;;5.60;;
70727;SDS011;58314;47.722;17.652;2022-07-23T10:43:34;6.40;;;5.88;;
70727;SDS011;58314;47.722;17.652;2022-07-23T10:46:35;10.02;;;5.70;;
70727;SDS011;58314;47.722;17.652;2022-07-23T10:50:16;6.75;;;5.40;;
70727;SDS011;58314;47.722;17.652;2022-07-23T10:53:27;6.65;;;5.68;;
70727;SDS011;58314;47.722;17.652;2022-07-23T11:10:00;6.60;;;5.50;;
70727;SDS011;58314;47.722;17.652;2022-07-23T11:16:22;7.75;;;4.95;;
70727;SDS011;58314;47.722;17.652;2022-07-23T11:19:24;5.68;;;4.63;;
70727;SDS011;58314;47.722;17.652;2022-07-23T11:22:34;5.18;;;4.68;;
70727;SDS011;58314;47.722;17.652;2022-07-23T11:25:38;8.70;;;4.75;;
70727;SDS011;58314;47.722;17.652;2022-07-23T11:28:38;5.47;;;4.60;;
70727;SDS011;58314;47.722;17.652;2022-07-23T11:31:50;6.10;;;4.60;;
70727;SDS011;58314;47.722;17.652;2022-07-23T11:35:21;6.10;;;4.82;;
70727;SDS011;58314;47.722;17.652;2022-07-23T11:38:27;6.53;;;4.82;;
70727;SDS011;58314;47.722;17.652;2022-07-23T11:41:43;5.45;;;4.38;;
70727;SDS011;58314;47.722;17.652;2022-07-23T11:44:46;5.80;;;4.10;;
70727;SDS011;58314;47.722;17.652;2022-07-23T11:47:47;7.07;;;4.10;;
70727;SDS011;58314;47.722;17.652;2022-07-23T11:50:47;7.22;;;4.07;;
70727;SDS011;58314;47.722;17.652;2022-07-23T11:53:49;4.90;;;4.00;;
70727;SDS011;58314;47.722;17.652;2022-07-23T11:56:56;5.78;;;4.13;;
70727;SDS011;58314;47.722;17.652;2022-07-23T12:00:00;4.38;;;3.97;;
70727;SDS011;58314;47.722;17.652;2022-07-23T12:03:10;5.28;;;3.83;;
70727;SDS011;58314;47.722;17.652;2022-07-23T12:06:11;4.32;;;3.90;;
70727;SDS011;58314;47.722;17.652;2022-07-23T12:09:12;7.22;;;3.80;;
70727;SDS011;58314;47.722;17.652;2022-07-23T12:12:12;5.40;;;3.83;;
70727;SDS011;58314;47.722;17.652;2022-07-23T12:15:13;5.05;;;4.05;;
70727;SDS011;58314;47.722;17.652;2022-07-23T12:18:22;6.60;;;4.18;;
70727;SDS011;58314;47.722;17.652;2022-07-23T12:21:24;5.82;;;4.00;;
70727;SDS011;58314;47.722;17.652;2022-07-23T12:24:25;4.20;;;3.90;;
70727;SDS011;58314;47.722;17.652;2022-07-23T12:27:26;6.10;;;4.00;;
70727;SDS011;58314;47.722;17.652;2022-07-23T12:33:38;6.03;;;3.83;;
70727;SDS011;58314;47.722;17.652;2022-07-23T12:36:39;7.30;;;4.13;;
70727;SDS011;58314;47.722;17.652;2022-07-23T12:39:40;6.85;;;4.30;;
70727;SDS011;58314;47.722;17.652;2022-07-23T12:42:42;4.88;;;4.22;;
70727;SDS011;58314;47.722;17.652;2022-07-23T12:45:53;5.35;;;4.18;;
70727;SDS011;58314;47.722;17.652;2022-07-23T12:49:02;7.85;;;4.65;;
70727;SDS011;58314;47.722;17.652;2022-07-23T12:52:15;5.82;;;4.72;;
70727;SDS011;58314;47.722;17.652;2022-07-23T12:55:28;4.88;;;4.38;;
70727;SDS011;58314;47.722;17.652;2022-07-23T12:58:39;6.57;;;4.38;;
70727;SDS011;58314;47.722;17.652;2022-07-23T13:01:41;6.53;;;3.90;;
70727;SDS011;58314;47.722;17.652;2022-07-23T13:04:43;6.60;;;4.30;;
70727;SDS011;58314;47.722;17.652;2022-07-23T13:07:44;4.65;;;4.10;;
70727;SDS011;58314;47.722;17.652;2022-07-23T13:10:44;6.32;;;3.80;;
70727;SDS011;58314;47.722;17.652;2022-07-23T13:13:49;4.30;;;3.90;;
70727;SDS011;58314;47.722;17.652;2022-07-23T13:16:50;5.40;;;3.97;;
70727;SDS011;58314;47.722;17.652;2022-07-23T13:19:52;6.00;;;3.85;;
70727;SDS011;58314;47.722;17.652;2022-07-23T13:22:53;8.75;;;4.32;;
70727;SDS011;58314;47.722;17.652;2022-07-23T13:25:53;5.60;;;4.15;;
70727;SDS011;58314;47.722;17.652;2022-07-23T13:28:55;4.85;;;4.10;;
70727;SDS011;58314;47.722;17.652;2022-07-23T13:31:55;5.22;;;4.38;;
70727;SDS011;58314;47.722;17.652;2022-07-23T13:34:56;10.30;;;4.40;;
70727;SDS011;58314;47.722;17.652;2022-07-23T13:37:57;7.05;;;4.63;;
70727;SDS011;58314;47.722;17.652;2022-07-23T13:40:58;5.38;;;4.85;;
70727;SDS011;58314;47.722;17.652;2022-07-23T13:43:59;5.50;;;4.72;;
70727;SDS011;58314;47.722;17.652;2022-07-23T13:47:00;5.28;;;4.78;;
70727;SDS011;58314;47.722;17.652;2022-07-23T13:50:00;5.53;;;4.60;;
70727;SDS011;58314;47.722;17.652;2022-07-23T13:53:05;7.22;;;5.00;;
70727;SDS011;58314;47.722;17.652;2022-07-23T13:56:07;5.50;;;5.00;;
70727;SDS011;58314;47.722;17.652;2022-07-23T13:59:08;7.45;;;4.93;;
70727;SDS011;58314;47.722;17.652;2022-07-23T14:02:09;7.03;;;5.50;;
70727;SDS011;58314;47.722;17.652;2022-07-23T14:05:10;7.00;;;5.45;;
70727;SDS011;58314;47.722;17.652;2022-07-23T14:08:11;5.50;;;4.93;;
70727;SDS011;58314;47.722;17.652;2022-07-23T14:11:12;6.38;;;4.95;;
70727;SDS011;58314;47.722;17.652;2022-07-23T14:14:13;8.05;;;4.78;;
70727;SDS011;58314;47.722;17.652;2022-07-23T14:17:13;8.15;;;4.72;;
70727;SDS011;58314;47.722;17.652;2022-07-23T14:20:14;8.48;;;4.63;;
70727;SDS011;58314;47.722;17.652;2022-07-23T14:23:15;29.70;;;5.50;;
70727;SDS011;58314;47.722;17.652;2022-07-23T14:26:16;42.58;;;6.35;;
70727;SDS011;58314;47.722;17.652;2022-07-23T14:29:16;33.53;;;6.10;;
70727;SDS011;58314;47.722;17.652;2022-07-23T14:32:17;17.75;;;5.78;;
70727;SDS011;58314;47.722;17.652;2022-07-23T14:35:17;16.48;;;5.50;;
70727;SDS011;58314;47.722;17.652;2022-07-23T14:38:19;18.85;;;5.45;;
70727;SDS011;58314;47.722;17.652;2022-07-23T14:41:20;19.02;;;5.90;;
70727;SDS011;58314;47.722;17.652;2022-07-23T14:44:20;13.20;;;6.43;;
70727;SDS011;58314;47.722;17.652;2022-07-23T14:47:21;12.65;;;5.97;;
70727;SDS011;58314;47.722;17.652;2022-07-23T14:50:24;12.30;;;7.50;;
70727;SDS011;58314;47.722;17.652;2022-07-23T14:53:25;13.05;;;7.43;;
70727;SDS011;58314;47.722;17.652;2022-07-23T14:56:25;10.15;;;7.25;;
70727;SDS011;58314;47.722;17.652;2022-07-23T14:59:26;12.70;;;7.70;;
70727;SDS011;58314;47.722;17.652;2022-07-23T15:02:27;10.38;;;7.55;;
70727;SDS011;58314;47.722;17.652;2022-07-23T15:05:28;11.93;;;7.43;;
70727;SDS011;58314;47.722;17.652;2022-07-23T15:08:29;10.60;;;7.72;;
70727;SDS011;58314;47.722;17.652;2022-07-23T15:11:30;10.23;;;7.53;;
70727;SDS011;58314;47.722;17.652;2022-07-23T15:14:34;8.35;;;7.55;;
70727;SDS011;58314;47.722;17.652;2022-07-23T15:17:34;8.10;;;7.40;;
70727;SDS011;58314;47.722;17.652;2022-07-23T15:20:35;8.90;;;7.38;;
70727;SDS011;58314;47.722;17.652;2022-07-23T15:23:37;9.10;;;7.43;;
70727;SDS011;58314;47.722;17.652;2022-07-23T15:26:39;9.18;;;6.88;;
70727;SDS011;58314;47.722;17.652;2022-07-23T15:29:40;10.15;;;7.28;;
70727;SDS011;58314;47.722;17.652;2022-07-23T15:32:40;10.25;;;7.72;;
70727;SDS011;58314;47.722;17.652;2022-07-23T15:35:41;9.73;;;7.78;;
70727;SDS011;58314;47.722;17.652;2022-07-23T15:38:42;9.10;;;7.40;;
70727;SDS011;58314;47.722;17.652;2022-07-23T15:41:43;10.80;;;8.00;;
70727;SDS011;58314;47.722;17.652;2022-07-23T15:44:43;10.90;;;7.63;;
70727;SDS011;58314;47.722;17.652;2022-07-23T15:47:44;9.52;;;7.53;;
70727;SDS011;58314;47.722;17.652;2022-07-23T15:50:48;8.45;;;6.72;;
70727;SDS011;58314;47.722;17.652;2022-07-23T15:53:49;7.68;;;6.88;;
70727;SDS011;58314;47.722;17.652;2022-07-23T15:56:49;8.20;;;7.07;;
70727;SDS011;58314;47.722;17.652;2022-07-23T15:59:50;9.55;;;6.72;;
70727;SDS011;58314;47.722;17.652;2022-07-23T16:02:51;9.18;;;6.90;;
70727;SDS011;58314;47.722;17.652;2022-07-23T16:05:51;10.82;;;6.85;;
70727;SDS011;58314;47.722;17.652;2022-07-23T16:08:52;7.25;;;6.50;;
70727;SDS011;58314;47.722;17.652;2022-07-23T16:11:53;12.27;;;7.13;;
70727;SDS011;58314;47.722;17.652;2022-07-23T16:14:55;9.70;;;6.70;;
70727;SDS011;58314;47.722;17.652;2022-07-23T16:17:56;7.80;;;6.57;;
70727;SDS011;58314;47.722;17.652;2022-07-23T16:20:58;6.57;;;5.50;;
70727;SDS011;58314;47.722;17.652;2022-07-23T16:23:59;7.75;;;5.90;;
70727;SDS011;58314;47.722;17.652;2022-07-23T16:27:00;9.73;;;6.68;;
70727;SDS011;58314;47.722;17.652;2022-07-23T16:30:00;7.57;;;5.93;;
70727;SDS011;58314;47.722;17.652;2022-07-23T16:33:01;6.50;;;6.00;;
70727;SDS011;58314;47.722;17.652;2022-07-23T16:36:02;8.35;;;5.93;;
70727;SDS011;58314;47.722;17.652;2022-07-23T16:39:04;10.02;;;6.30;;
70727;SDS011;58314;47.722;17.652;2022-07-23T16:42:05;7.45;;;6.75;;
70727;SDS011;58314;47.722;17.652;2022-07-23T16:45:06;6.63;;;5.85;;
70727;SDS011;58314;47.722;17.652;2022-07-23T16:48:08;6.03;;;5.50;;
70727;SDS011;58314;47.722;17.652;2022-07-23T16:51:09;8.27;;;6.40;;
70727;SDS011;58314;47.722;17.652;2022-07-23T16:54:10;9.18;;;6.50;;
70727;SDS011;58314;47.722;17.652;2022-07-23T16:57:11;7.60;;;5.65;;
70727;SDS011;58314;47.722;17.652;2022-07-23T17:00:12;7.95;;;6.90;;
70727;SDS011;58314;47.722;17.652;2022-07-23T17:03:13;6.82;;;6.18;;
70727;SDS011;58314;47.722;17.652;2022-07-23T17:06:14;6.75;;;6.13;;
70727;SDS011;58314;47.722;17.652;2022-07-23T17:09:14;6.53;;;5.85;;
70727;SDS011;58314;47.722;17.652;2022-07-23T17:12:15;6.82;;;6.25;;
70727;SDS011;58314;47.722;17.652;2022-07-23T17:15:17;7.10;;;6.43;;
70727;SDS011;58314;47.722;17.652;2022-07-23T17:18:18;6.63;;;6.03;;
70727;SDS011;58314;47.722;17.652;2022-07-23T17:21:19;6.72;;;5.95;;
70727;SDS011;58314;47.722;17.652;2022-07-23T17:24:19;6.68;;;6.00;;
70727;SDS011;58314;47.722;17.652;2022-07-23T17:27:20;6.72;;;6.07;;
70727;SDS011;58314;47.722;17.652;2022-07-23T17:30:21;6.70;;;6.07;;
70727;SDS011;58314;47.722;17.652;2022-07-23T17:33:22;7.43;;;6.28;;
70727;SDS011;58314;47.722;17.652;2022-07-23T17:36:23;33.40;;;30.33;;
70727;SDS011;58314;47.722;17.652;2022-07-23T17:39:24;9.27;;;8.35;;
70727;SDS011;58314;47.722;17.652;2022-07-23T17:42:25;7.00;;;6.28;;
70727;SDS011;58314;47.722;17.652;2022-07-23T17:45:26;8.60;;;6.93;;
70727;SDS011;58314;47.722;17.652;2022-07-23T17:48:27;7.75;;;6.90;;
70727;SDS011;58314;47.722;17.652;2022-07-23T17:51:28;6.82;;;6.22;;
70727;SDS011;58314;47.722;17.652;2022-07-23T17:54:28;8.65;;;7.10;;
70727;SDS011;58314;47.722;17.652;2022-07-23T17:57:29;8.05;;;7.25;;
70727;SDS011;58314;47.722;17.652;2022-07-23T18:00:31;8.02;;;7.22;;
70727;SDS011;58314;47.722;17.652;2022-07-23T18:03:35;10.32;;;7.47;;
70727;SDS011;58314;47.722;17.652;2022-07-23T18:06:37;8.35;;;7.03;;
70727;SDS011;58314;47.722;17.652;2022-07-23T18:09:38;8.13;;;7.32;;
70727;SDS011;58314;47.722;17.652;2022-07-23T18:12:39;9.52;;;7.93;;
70727;SDS011;58314;47.722;17.652;2022-07-23T18:15:39;11.65;;;9.68;;
70727;SDS011;58314;47.722;17.652;2022-07-23T18:18:40;10.52;;;8.40;;
70727;SDS011;58314;47.722;17.652;2022-07-23T18:21:41;11.00;;;8.02;;
70727;SDS011;58314;47.722;17.652;2022-07-23T18:24:42;8.55;;;7.63;;
70727;SDS011;58314;47.722;17.652;2022-07-23T18:27:43;8.70;;;7.85;;